EWG335 LJLJ-LTFM
Flight info
| Callsign | EWG335 |
|---|---|
| Flight time | 1h 56m |
| Altitude | 37000 |
| Route | MODRO1Z MODRO DCT NEMEK DCT MITNO DCT NISVA DCT DEDIN L614 GERGI T391 AYTEK |
| Aircraft | A320/M-SDE3FGHIRWY/LB1 |
Departure
| Time | 2026-04-25 21:18 |
|---|---|
| Airport | Ljubljana Jože Pučnik Airport (LJLJ) |
Arrival
| Time | 2026-04-25 23:15 |
|---|---|
| Airport | İstanbul Airport (LTFM) |
| Time | Latitude | Longitude | Altitude | Speed | Heading |
|---|---|---|---|---|---|
| 2026-04-25 21:03 | 46.23051 | 14.45373 | 1258 ft | 0 kts | 37° |
| 2026-04-25 21:03 | 46.23051 | 14.45372 | 1258 ft | 0 kts | 37° |
| 2026-04-25 21:09 | 46.23036 | 14.45356 | 1269 ft | 4 kts | 41° |
| 2026-04-25 21:09 | 46.23018 | 14.45328 | 1264 ft | 4 kts | 59° |
| 2026-04-25 21:09 | 46.23011 | 14.45296 | 1268 ft | 3 kts | 118° |
| 2026-04-25 21:10 | 46.23013 | 14.45290 | 1267 ft | 0 kts | 125° |
| 2026-04-25 21:11 | 46.23005 | 14.45307 | 1265 ft | 0 kts | 126° |
| 2026-04-25 21:13 | 46.23004 | 14.45308 | 1265 ft | 1 kts | 126° |
| 2026-04-25 21:13 | 46.22980 | 14.45356 | 1264 ft | 11 kts | 126° |
| 2026-04-25 21:14 | 46.22919 | 14.45384 | 1263 ft | 12 kts | 212° |
| 2026-04-25 21:14 | 46.22836 | 14.45337 | 1258 ft | 14 kts | 160° |
| 2026-04-25 21:14 | 46.22764 | 14.45449 | 1263 ft | 17 kts | 127° |
| 2026-04-25 21:14 | 46.22684 | 14.45609 | 1256 ft | 23 kts | 126° |
| 2026-04-25 21:15 | 46.22582 | 14.45807 | 1260 ft | 26 kts | 126° |
| 2026-04-25 21:15 | 46.22466 | 14.46034 | 1248 ft | 29 kts | 126° |
| 2026-04-25 21:15 | 46.22352 | 14.46255 | 1239 ft | 27 kts | 127° |
| 2026-04-25 21:15 | 46.22232 | 14.46490 | 1226 ft | 32 kts | 126° |
| 2026-04-25 21:16 | 46.22114 | 14.46720 | 1219 ft | 28 kts | 126° |
| 2026-04-25 21:16 | 46.21998 | 14.46948 | 1216 ft | 27 kts | 126° |
| 2026-04-25 21:16 | 46.21879 | 14.47181 | 1212 ft | 29 kts | 127° |
| 2026-04-25 21:16 | 46.21763 | 14.47392 | 1208 ft | 20 kts | 152° |
| 2026-04-25 21:17 | 46.21661 | 14.47319 | 1206 ft | 17 kts | 216° |
| 2026-04-25 21:17 | 46.21636 | 14.47188 | 1209 ft | 14 kts | 307° |
| 2026-04-25 21:17 | 46.21690 | 14.47085 | 1212 ft | 6 kts | 307° |
| 2026-04-25 21:17 | 46.21699 | 14.47068 | 1213 ft | 8 kts | 307° |
| 2026-04-25 21:18 | 46.21898 | 14.46678 | 1224 ft | 85 kts | 306° |
| 2026-04-25 21:18 | 46.22378 | 14.45741 | 1251 ft | 144 kts | 307° |
| 2026-04-25 21:18 | 46.23036 | 14.44463 | 1602 ft | 166 kts | 307° |
| 2026-04-25 21:18 | 46.23679 | 14.43060 | 2347 ft | 168 kts | 290° |
| 2026-04-25 21:19 | 46.23606 | 14.41398 | 2921 ft | 179 kts | 240° |
| 2026-04-25 21:19 | 46.22589 | 14.40248 | 3227 ft | 203 kts | 197° |
| 2026-04-25 21:19 | 46.21117 | 14.39873 | 3589 ft | 224 kts | 189° |
| 2026-04-25 21:19 | 46.19564 | 14.39567 | 4416 ft | 226 kts | 189° |
| 2026-04-25 21:20 | 46.17986 | 14.39262 | 5208 ft | 231 kts | 188° |
| 2026-04-25 21:20 | 46.16923 | 14.39053 | 5715 ft | 234 kts | 188° |
| 2026-04-25 21:20 | 46.14747 | 14.38610 | 6768 ft | 239 kts | 188° |
| 2026-04-25 21:20 | 46.13089 | 14.38267 | 7541 ft | 242 kts | 188° |
| 2026-04-25 21:21 | 46.11417 | 14.37917 | 8318 ft | 245 kts | 188° |
| 2026-04-25 21:21 | 46.09716 | 14.37556 | 9110 ft | 248 kts | 188° |
| 2026-04-25 21:21 | 46.07993 | 14.37267 | 9871 ft | 252 kts | 178° |
| 2026-04-25 21:21 | 46.06280 | 14.37774 | 10581 ft | 254 kts | 154° |
| 2026-04-25 21:22 | 46.04781 | 14.39232 | 10967 ft | 273 kts | 131° |
| 2026-04-25 21:22 | 46.03582 | 14.41493 | 11258 ft | 295 kts | 124° |
| 2026-04-25 21:22 | 46.02329 | 14.43979 | 11521 ft | 319 kts | 125° |
| 2026-04-25 21:22 | 46.00970 | 14.46649 | 11762 ft | 342 kts | 126° |
| 2026-04-25 21:23 | 45.99508 | 14.49497 | 11940 ft | 365 kts | 126° |
| 2026-04-25 21:23 | 45.97964 | 14.52487 | 12370 ft | 378 kts | 126° |
| 2026-04-25 21:23 | 45.96378 | 14.55547 | 13026 ft | 384 kts | 126° |
| 2026-04-25 21:23 | 45.94773 | 14.58636 | 13717 ft | 389 kts | 127° |
| 2026-04-25 21:24 | 45.93144 | 14.61772 | 14328 ft | 393 kts | 127° |
| 2026-04-25 21:24 | 45.91502 | 14.64935 | 14936 ft | 398 kts | 127° |
| 2026-04-25 21:24 | 45.89838 | 14.68137 | 15543 ft | 402 kts | 127° |
| 2026-04-25 21:24 | 45.88184 | 14.71321 | 16123 ft | 405 kts | 127° |
| 2026-04-25 21:25 | 45.86488 | 14.74583 | 16714 ft | 409 kts | 128° |
| 2026-04-25 21:25 | 45.84778 | 14.77868 | 17274 ft | 413 kts | 128° |
| 2026-04-25 21:25 | 45.83049 | 14.81183 | 17846 ft | 417 kts | 128° |
| 2026-04-25 21:25 | 45.81369 | 14.84402 | 18385 ft | 420 kts | 128° |
| 2026-04-25 21:26 | 45.79631 | 14.87733 | 18872 ft | 424 kts | 128° |
| 2026-04-25 21:26 | 45.77860 | 14.91126 | 19347 ft | 427 kts | 128° |
| 2026-04-25 21:26 | 45.76043 | 14.94597 | 19826 ft | 431 kts | 128° |
| 2026-04-25 21:26 | 45.74261 | 14.97998 | 20299 ft | 434 kts | 128° |
| 2026-04-25 21:27 | 45.72453 | 15.01440 | 20744 ft | 438 kts | 129° |
| 2026-04-25 21:27 | 45.70593 | 15.04975 | 21217 ft | 441 kts | 129° |
| 2026-04-25 21:27 | 45.68736 | 15.08495 | 21665 ft | 444 kts | 129° |
| 2026-04-25 21:27 | 45.66869 | 15.12031 | 22117 ft | 448 kts | 129° |
| 2026-04-25 21:28 | 45.64991 | 15.15587 | 22545 ft | 451 kts | 129° |
| 2026-04-25 21:28 | 45.63090 | 15.19185 | 22970 ft | 454 kts | 129° |
| 2026-04-25 21:28 | 45.61177 | 15.22797 | 23369 ft | 458 kts | 129° |
| 2026-04-25 21:28 | 45.59248 | 15.26431 | 23736 ft | 461 kts | 129° |
| 2026-04-25 21:29 | 45.57334 | 15.30128 | 24082 ft | 465 kts | 126° |
| 2026-04-25 21:29 | 45.55635 | 15.34071 | 24427 ft | 468 kts | 123° |
| 2026-04-25 21:29 | 45.53944 | 15.38055 | 24785 ft | 471 kts | 123° |
| 2026-04-25 21:29 | 45.52243 | 15.42054 | 25138 ft | 473 kts | 123° |
| 2026-04-25 21:30 | 45.50525 | 15.46082 | 25473 ft | 476 kts | 124° |
| 2026-04-25 21:30 | 45.48797 | 15.50119 | 25794 ft | 478 kts | 124° |
| 2026-04-25 21:30 | 45.47054 | 15.54170 | 26108 ft | 481 kts | 124° |
| 2026-04-25 21:30 | 45.45896 | 15.56854 | 26316 ft | 482 kts | 124° |
| 2026-04-25 21:31 | 45.43535 | 15.62315 | 26726 ft | 485 kts | 124° |
| 2026-04-25 21:31 | 45.41766 | 15.66412 | 27029 ft | 487 kts | 124° |
| 2026-04-25 21:31 | 45.39986 | 15.70538 | 27323 ft | 490 kts | 124° |
| 2026-04-25 21:31 | 45.38201 | 15.74675 | 27636 ft | 492 kts | 124° |
| 2026-04-25 21:32 | 45.36408 | 15.78827 | 27923 ft | 494 kts | 124° |
| 2026-04-25 21:32 | 45.34605 | 15.82988 | 28312 ft | 494 kts | 124° |
| 2026-04-25 21:32 | 45.32805 | 15.87132 | 28751 ft | 493 kts | 124° |
| 2026-04-25 21:32 | 45.31002 | 15.91277 | 29172 ft | 492 kts | 124° |
| 2026-04-25 21:33 | 45.29205 | 15.95405 | 29594 ft | 491 kts | 124° |
| 2026-04-25 21:33 | 45.27407 | 15.99530 | 30028 ft | 490 kts | 124° |
| 2026-04-25 21:33 | 45.25613 | 16.03635 | 30398 ft | 489 kts | 124° |
| 2026-04-25 21:33 | 45.23820 | 16.07730 | 30757 ft | 489 kts | 124° |
| 2026-04-25 21:34 | 45.22025 | 16.11826 | 31126 ft | 488 kts | 124° |
| 2026-04-25 21:34 | 45.20254 | 16.15858 | 31475 ft | 487 kts | 124° |
| 2026-04-25 21:34 | 45.18442 | 16.19988 | 31814 ft | 487 kts | 124° |
| 2026-04-25 21:34 | 45.16657 | 16.24056 | 32185 ft | 486 kts | 124° |
| 2026-04-25 21:35 | 45.14895 | 16.28061 | 32514 ft | 485 kts | 124° |
| 2026-04-25 21:35 | 45.13216 | 16.31865 | 32853 ft | 485 kts | 124° |
| 2026-04-25 21:35 | 45.11430 | 16.35900 | 33205 ft | 484 kts | 125° |
| 2026-04-25 21:35 | 45.09636 | 16.39944 | 33556 ft | 484 kts | 125° |
| 2026-04-25 21:36 | 45.07847 | 16.43975 | 33909 ft | 483 kts | 125° |
| 2026-04-25 21:36 | 45.06061 | 16.47993 | 34230 ft | 483 kts | 125° |
| 2026-04-25 21:36 | 45.04272 | 16.52013 | 34520 ft | 483 kts | 125° |
| 2026-04-25 21:36 | 45.02483 | 16.56031 | 34816 ft | 482 kts | 125° |
| 2026-04-25 21:37 | 45.00699 | 16.60038 | 35088 ft | 482 kts | 125° |
| 2026-04-25 21:37 | 45.00093 | 16.61398 | 35183 ft | 482 kts | 125° |
| 2026-04-25 21:37 | 44.97126 | 16.68053 | 35624 ft | 482 kts | 125° |
| 2026-04-25 21:37 | 44.95335 | 16.72057 | 35880 ft | 482 kts | 125° |
| 2026-04-25 21:38 | 44.94126 | 16.74754 | 36050 ft | 481 kts | 125° |
| 2026-04-25 21:38 | 44.92332 | 16.78745 | 36304 ft | 481 kts | 125° |
| 2026-04-25 21:38 | 44.90539 | 16.82726 | 36560 ft | 481 kts | 125° |
| 2026-04-25 21:38 | 44.88749 | 16.86707 | 36794 ft | 480 kts | 125° |
| 2026-04-25 21:39 | 44.86961 | 16.90685 | 36982 ft | 481 kts | 125° |
| 2026-04-25 21:39 | 44.85162 | 16.94681 | 37022 ft | 483 kts | 125° |
| 2026-04-25 21:39 | 44.81557 | 17.02657 | 37019 ft | 483 kts | 125° |
| 2026-04-25 21:40 | 44.77941 | 17.10623 | 37027 ft | 483 kts | 125° |
| 2026-04-25 21:40 | 44.74328 | 17.18570 | 37023 ft | 482 kts | 125° |
| 2026-04-25 21:41 | 44.70713 | 17.26515 | 37025 ft | 482 kts | 125° |
| 2026-04-25 21:41 | 44.67096 | 17.34444 | 37028 ft | 482 kts | 125° |
| 2026-04-25 21:42 | 44.63469 | 17.42345 | 37024 ft | 481 kts | 125° |
| 2026-04-25 21:42 | 44.59868 | 17.50185 | 37022 ft | 481 kts | 125° |
| 2026-04-25 21:43 | 44.56239 | 17.58063 | 37022 ft | 481 kts | 125° |
| 2026-04-25 21:43 | 44.52602 | 17.65923 | 37017 ft | 480 kts | 125° |
| 2026-04-25 21:44 | 44.48962 | 17.73766 | 37024 ft | 480 kts | 125° |
| 2026-04-25 21:45 | 44.43503 | 17.85526 | 37032 ft | 480 kts | 125° |
| 2026-04-25 21:45 | 44.39865 | 17.93334 | 37027 ft | 479 kts | 125° |
| 2026-04-25 21:46 | 44.36214 | 18.01137 | 37026 ft | 479 kts | 125° |
| 2026-04-25 21:46 | 44.32552 | 18.08929 | 37028 ft | 479 kts | 125° |
| 2026-04-25 21:47 | 44.28894 | 18.16703 | 37026 ft | 479 kts | 125° |
| 2026-04-25 21:47 | 44.25223 | 18.24482 | 37029 ft | 479 kts | 125° |
| 2026-04-25 21:48 | 44.21557 | 18.32230 | 37026 ft | 479 kts | 125° |
| 2026-04-25 21:48 | 44.17884 | 18.39981 | 37035 ft | 479 kts | 125° |
| 2026-04-25 21:49 | 44.14203 | 18.47722 | 37041 ft | 479 kts | 125° |
| 2026-04-25 21:49 | 44.10518 | 18.55456 | 37047 ft | 479 kts | 125° |
| 2026-04-25 21:50 | 44.06835 | 18.63167 | 37046 ft | 479 kts | 125° |
| 2026-04-25 21:50 | 44.03144 | 18.70874 | 37049 ft | 479 kts | 125° |
| 2026-04-25 21:51 | 43.99441 | 18.78570 | 37053 ft | 479 kts | 125° |
| 2026-04-25 21:51 | 43.95737 | 18.86254 | 37051 ft | 478 kts | 125° |
| 2026-04-25 21:52 | 43.92037 | 18.93925 | 37053 ft | 479 kts | 125° |
| 2026-04-25 21:52 | 43.88326 | 19.01592 | 37052 ft | 478 kts | 125° |
| 2026-04-25 21:53 | 43.84634 | 19.09191 | 37052 ft | 479 kts | 125° |
| 2026-04-25 21:53 | 43.80912 | 19.16829 | 37052 ft | 479 kts | 125° |
| 2026-04-25 21:54 | 43.77473 | 19.24701 | 37049 ft | 479 kts | 114° |
| 2026-04-25 21:54 | 43.75415 | 19.33454 | 37051 ft | 479 kts | 105° |
| 2026-04-25 21:55 | 43.73574 | 19.42309 | 37054 ft | 479 kts | 106° |
| 2026-04-25 21:55 | 43.71709 | 19.51163 | 37054 ft | 479 kts | 106° |
| 2026-04-25 21:56 | 43.69854 | 19.59998 | 37059 ft | 479 kts | 105° |
| 2026-04-25 21:56 | 43.67998 | 19.68830 | 37058 ft | 479 kts | 106° |
| 2026-04-25 21:57 | 43.66123 | 19.77670 | 37058 ft | 479 kts | 106° |
| 2026-04-25 21:57 | 43.64246 | 19.86493 | 37062 ft | 479 kts | 106° |
| 2026-04-25 21:58 | 43.62362 | 19.95315 | 37062 ft | 479 kts | 106° |
| 2026-04-25 21:58 | 43.60474 | 20.04125 | 37065 ft | 479 kts | 106° |
| 2026-04-25 21:59 | 43.58578 | 20.12935 | 37059 ft | 479 kts | 106° |
| 2026-04-25 21:59 | 43.56675 | 20.21723 | 37061 ft | 479 kts | 106° |
| 2026-04-25 22:00 | 43.53810 | 20.34912 | 37059 ft | 478 kts | 106° |
| 2026-04-25 22:00 | 43.51886 | 20.43697 | 37056 ft | 478 kts | 106° |
| 2026-04-25 22:01 | 43.49963 | 20.52459 | 37056 ft | 478 kts | 106° |
| 2026-04-25 22:01 | 43.48358 | 20.59754 | 37055 ft | 478 kts | 106° |
| 2026-04-25 22:02 | 43.46094 | 20.69992 | 37051 ft | 478 kts | 106° |
| 2026-04-25 22:02 | 43.44151 | 20.78745 | 37054 ft | 478 kts | 106° |
| 2026-04-25 22:03 | 43.42194 | 20.87489 | 37049 ft | 478 kts | 106° |
| 2026-04-25 22:03 | 43.40234 | 20.96225 | 37043 ft | 478 kts | 106° |
| 2026-04-25 22:04 | 43.38276 | 21.04945 | 37045 ft | 478 kts | 106° |
| 2026-04-25 22:04 | 43.36306 | 21.13671 | 37054 ft | 478 kts | 106° |
| 2026-04-25 22:05 | 43.34346 | 21.22329 | 37040 ft | 477 kts | 106° |
| 2026-04-25 22:05 | 43.32368 | 21.31027 | 37044 ft | 477 kts | 106° |
| 2026-04-25 22:06 | 43.30385 | 21.39711 | 37041 ft | 477 kts | 106° |
| 2026-04-25 22:06 | 43.28394 | 21.48397 | 37042 ft | 477 kts | 106° |
| 2026-04-25 22:07 | 43.26723 | 21.55665 | 37041 ft | 476 kts | 106° |
| 2026-04-25 22:07 | 43.24395 | 21.65721 | 37042 ft | 476 kts | 106° |
| 2026-04-25 22:08 | 43.22370 | 21.74427 | 37065 ft | 476 kts | 106° |
| 2026-04-25 22:08 | 43.20347 | 21.83072 | 37068 ft | 476 kts | 106° |
| 2026-04-25 22:09 | 43.18336 | 21.91646 | 37064 ft | 475 kts | 106° |
| 2026-04-25 22:09 | 43.16321 | 22.00253 | 37068 ft | 475 kts | 106° |
| 2026-04-25 22:10 | 43.14300 | 22.08860 | 37065 ft | 474 kts | 106° |
| 2026-04-25 22:10 | 43.12261 | 22.17454 | 37069 ft | 474 kts | 106° |
| 2026-04-25 22:11 | 43.10218 | 22.26030 | 37069 ft | 474 kts | 106° |
| 2026-04-25 22:11 | 43.08176 | 22.34601 | 37076 ft | 473 kts | 106° |
| 2026-04-25 22:12 | 43.06131 | 22.43149 | 37083 ft | 473 kts | 106° |
| 2026-04-25 22:12 | 43.04755 | 22.48870 | 37080 ft | 473 kts | 106° |
| 2026-04-25 22:13 | 43.02019 | 22.60235 | 37087 ft | 472 kts | 106° |
| 2026-04-25 22:13 | 42.99956 | 22.68755 | 37092 ft | 472 kts | 106° |
| 2026-04-25 22:14 | 42.97883 | 22.77261 | 37093 ft | 472 kts | 106° |
| 2026-04-25 22:14 | 42.95696 | 22.85697 | 37091 ft | 472 kts | 109° |
| 2026-04-25 22:15 | 42.93250 | 22.94026 | 37083 ft | 472 kts | 110° |
| 2026-04-25 22:16 | 42.89529 | 23.06451 | 37082 ft | 471 kts | 110° |
| 2026-04-25 22:16 | 42.87106 | 23.14749 | 37078 ft | 471 kts | 109° |
| 2026-04-25 22:17 | 42.85090 | 23.21690 | 37078 ft | 470 kts | 109° |
| 2026-04-25 22:17 | 42.82675 | 23.29962 | 37078 ft | 470 kts | 109° |
| 2026-04-25 22:18 | 42.80241 | 23.38238 | 37078 ft | 470 kts | 109° |
| 2026-04-25 22:18 | 42.77809 | 23.46497 | 37074 ft | 470 kts | 109° |
| 2026-04-25 22:19 | 42.75372 | 23.54751 | 37077 ft | 470 kts | 109° |
| 2026-04-25 22:19 | 42.72915 | 23.62984 | 37076 ft | 470 kts | 110° |
| 2026-04-25 22:20 | 42.70452 | 23.71210 | 37078 ft | 469 kts | 109° |
| 2026-04-25 22:20 | 42.67999 | 23.79430 | 37075 ft | 469 kts | 109° |
| 2026-04-25 22:21 | 42.65549 | 23.87637 | 37079 ft | 468 kts | 109° |
| 2026-04-25 22:21 | 42.63092 | 23.95823 | 37072 ft | 468 kts | 110° |
| 2026-04-25 22:22 | 42.60622 | 24.03991 | 37068 ft | 467 kts | 110° |
| 2026-04-25 22:22 | 42.58176 | 24.12161 | 37063 ft | 467 kts | 109° |
| 2026-04-25 22:23 | 42.55891 | 24.20404 | 37057 ft | 466 kts | 107° |
| 2026-04-25 22:23 | 42.53655 | 24.28646 | 37056 ft | 465 kts | 108° |
| 2026-04-25 22:24 | 42.51387 | 24.36857 | 37043 ft | 465 kts | 108° |
| 2026-04-25 22:24 | 42.49300 | 24.44303 | 37039 ft | 464 kts | 108° |
| 2026-04-25 22:25 | 42.46993 | 24.52472 | 37038 ft | 464 kts | 108° |
| 2026-04-25 22:25 | 42.44684 | 24.60625 | 37034 ft | 464 kts | 108° |
| 2026-04-25 22:26 | 42.42377 | 24.68769 | 37032 ft | 463 kts | 108° |
| 2026-04-25 22:26 | 42.40070 | 24.76904 | 37031 ft | 463 kts | 108° |
| 2026-04-25 22:27 | 42.37755 | 24.85032 | 37025 ft | 462 kts | 108° |
| 2026-04-25 22:27 | 42.35435 | 24.93142 | 37029 ft | 462 kts | 108° |
| 2026-04-25 22:28 | 42.33113 | 25.01245 | 37025 ft | 462 kts | 108° |
| 2026-04-25 22:28 | 42.30791 | 25.09323 | 37025 ft | 462 kts | 109° |
| 2026-04-25 22:29 | 42.28475 | 25.17355 | 37033 ft | 461 kts | 109° |
| 2026-04-25 22:29 | 42.26144 | 25.25414 | 37026 ft | 461 kts | 109° |
| 2026-04-25 22:30 | 42.22642 | 25.37477 | 37025 ft | 460 kts | 109° |
| 2026-04-25 22:30 | 42.20671 | 25.44213 | 37021 ft | 460 kts | 109° |
| 2026-04-25 22:31 | 42.17779 | 25.53437 | 37018 ft | 461 kts | 117° |
| 2026-04-25 22:31 | 42.14498 | 25.60868 | 37017 ft | 461 kts | 118° |
| 2026-04-25 22:32 | 42.11211 | 25.68283 | 37022 ft | 461 kts | 118° |
| 2026-04-25 22:32 | 42.07927 | 25.75696 | 37016 ft | 460 kts | 118° |
| 2026-04-25 22:33 | 42.04642 | 25.83091 | 37020 ft | 460 kts | 118° |
| 2026-04-25 22:33 | 42.01354 | 25.90472 | 37022 ft | 460 kts | 118° |
| 2026-04-25 22:34 | 41.98080 | 25.97801 | 37025 ft | 460 kts | 118° |
| 2026-04-25 22:34 | 41.96432 | 26.01480 | 36838 ft | 460 kts | 118° |
| 2026-04-25 22:34 | 41.94776 | 26.05175 | 35908 ft | 465 kts | 118° |
| 2026-04-25 22:35 | 41.93100 | 26.08911 | 35063 ft | 468 kts | 118° |
| 2026-04-25 22:35 | 41.91417 | 26.12656 | 34281 ft | 469 kts | 118° |
| 2026-04-25 22:35 | 41.89732 | 26.16407 | 33434 ft | 469 kts | 118° |
| 2026-04-25 22:35 | 41.88046 | 26.20158 | 32504 ft | 470 kts | 118° |
| 2026-04-25 22:36 | 41.86352 | 26.23917 | 31560 ft | 472 kts | 119° |
| 2026-04-25 22:36 | 41.84650 | 26.27686 | 30607 ft | 474 kts | 119° |
| 2026-04-25 22:36 | 41.82942 | 26.31457 | 30040 ft | 467 kts | 118° |
| 2026-04-25 22:36 | 41.81303 | 26.35127 | 29823 ft | 450 kts | 116° |
| 2026-04-25 22:37 | 41.80039 | 26.38893 | 29355 ft | 438 kts | 107° |
| 2026-04-25 22:37 | 41.79003 | 26.42706 | 28750 ft | 433 kts | 107° |
| 2026-04-25 22:37 | 41.77979 | 26.46478 | 28154 ft | 428 kts | 108° |
| 2026-04-25 22:37 | 41.76963 | 26.50199 | 27803 ft | 423 kts | 108° |
| 2026-04-25 22:38 | 41.75952 | 26.53882 | 27501 ft | 420 kts | 108° |
| 2026-04-25 22:38 | 41.74801 | 26.57468 | 27192 ft | 420 kts | 116° |
| 2026-04-25 22:38 | 41.73264 | 26.60796 | 26875 ft | 420 kts | 121° |
| 2026-04-25 22:38 | 41.71648 | 26.64046 | 26563 ft | 418 kts | 121° |
| 2026-04-25 22:39 | 41.70040 | 26.67284 | 26254 ft | 416 kts | 121° |
| 2026-04-25 22:39 | 41.68445 | 26.70502 | 25933 ft | 414 kts | 121° |
| 2026-04-25 22:39 | 41.66848 | 26.73699 | 25629 ft | 413 kts | 124° |
| 2026-04-25 22:39 | 41.64974 | 26.76605 | 25319 ft | 413 kts | 135° |
| 2026-04-25 22:40 | 41.62708 | 26.78964 | 25008 ft | 413 kts | 147° |
| 2026-04-25 22:40 | 41.60147 | 26.80694 | 24586 ft | 412 kts | 158° |
| 2026-04-25 22:40 | 41.57393 | 26.81713 | 24170 ft | 410 kts | 169° |
| 2026-04-25 22:40 | 41.54579 | 26.82321 | 23763 ft | 408 kts | 170° |
| 2026-04-25 22:41 | 41.51822 | 26.83106 | 23315 ft | 405 kts | 161° |
| 2026-04-25 22:41 | 41.49263 | 26.84624 | 22905 ft | 401 kts | 148° |
| 2026-04-25 22:41 | 41.47040 | 26.86818 | 22511 ft | 396 kts | 135° |
| 2026-04-25 22:41 | 41.45269 | 26.89527 | 22133 ft | 392 kts | 123° |
| 2026-04-25 22:42 | 41.43947 | 26.92683 | 21745 ft | 388 kts | 112° |
| 2026-04-25 22:42 | 41.42871 | 26.95964 | 21365 ft | 386 kts | 112° |
| 2026-04-25 22:42 | 41.41792 | 26.99230 | 20986 ft | 384 kts | 112° |
| 2026-04-25 22:42 | 41.40712 | 27.02479 | 20623 ft | 382 kts | 112° |
| 2026-04-25 22:43 | 41.39532 | 27.05636 | 20240 ft | 381 kts | 120° |
| 2026-04-25 22:43 | 41.37944 | 27.08439 | 19865 ft | 380 kts | 131° |
| 2026-04-25 22:43 | 41.35968 | 27.10771 | 19501 ft | 380 kts | 143° |
| 2026-04-25 22:43 | 41.33731 | 27.12630 | 19145 ft | 379 kts | 148° |
| 2026-04-25 22:44 | 41.31469 | 27.14418 | 18783 ft | 377 kts | 148° |
| 2026-04-25 22:44 | 41.29216 | 27.16201 | 18418 ft | 375 kts | 148° |
| 2026-04-25 22:44 | 41.26983 | 27.17967 | 18032 ft | 372 kts | 148° |
| 2026-04-25 22:44 | 41.24770 | 27.19714 | 17765 ft | 364 kts | 148° |
| 2026-04-25 22:45 | 41.22631 | 27.21401 | 17637 ft | 352 kts | 148° |
| 2026-04-25 22:45 | 41.20556 | 27.23039 | 17504 ft | 341 kts | 148° |
| 2026-04-25 22:45 | 41.18560 | 27.24622 | 17250 ft | 335 kts | 148° |
| 2026-04-25 22:45 | 41.16575 | 27.26207 | 17012 ft | 331 kts | 148° |
| 2026-04-25 22:46 | 41.14616 | 27.27775 | 16724 ft | 328 kts | 148° |
| 2026-04-25 22:46 | 41.12667 | 27.29336 | 16444 ft | 327 kts | 148° |
| 2026-04-25 22:46 | 41.10724 | 27.30890 | 16154 ft | 325 kts | 148° |
| 2026-04-25 22:46 | 41.08789 | 27.32430 | 15875 ft | 323 kts | 148° |
| 2026-04-25 22:47 | 41.06865 | 27.33960 | 15586 ft | 322 kts | 148° |
| 2026-04-25 22:47 | 41.04946 | 27.35484 | 15300 ft | 321 kts | 148° |
| 2026-04-25 22:47 | 41.03038 | 27.37002 | 15020 ft | 319 kts | 148° |
| 2026-04-25 22:47 | 41.01137 | 27.38511 | 14744 ft | 318 kts | 148° |
| 2026-04-25 22:48 | 40.99245 | 27.40012 | 14450 ft | 317 kts | 148° |
| 2026-04-25 22:48 | 40.97486 | 27.41718 | 14173 ft | 314 kts | 135° |
| 2026-04-25 22:48 | 40.96961 | 27.42417 | 14080 ft | 313 kts | 130° |
| 2026-04-25 22:50 | 40.92179 | 27.56350 | 12052 ft | 305 kts | 110° |
| 2026-04-25 22:50 | 40.91403 | 27.58952 | 11696 ft | 304 kts | 109° |
| 2026-04-25 22:50 | 40.90873 | 27.61633 | 11344 ft | 300 kts | 96° |
| 2026-04-25 22:50 | 40.90755 | 27.64371 | 10982 ft | 298 kts | 91° |
| 2026-04-25 22:51 | 40.90679 | 27.67104 | 10626 ft | 296 kts | 91° |
| 2026-04-25 22:51 | 40.90600 | 27.69811 | 10348 ft | 292 kts | 91° |
| 2026-04-25 22:51 | 40.90520 | 27.72448 | 10225 ft | 282 kts | 91° |
| 2026-04-25 22:51 | 40.90448 | 27.74999 | 10068 ft | 273 kts | 88° |
| 2026-04-25 22:52 | 40.90677 | 27.77467 | 9789 ft | 269 kts | 78° |
| 2026-04-25 22:52 | 40.91023 | 27.79888 | 9450 ft | 267 kts | 78° |
| 2026-04-25 22:52 | 40.91362 | 27.82291 | 9119 ft | 265 kts | 78° |
| 2026-04-25 22:52 | 40.91583 | 27.83864 | 9000 ft | 260 kts | 77° |
| 2026-04-25 22:53 | 40.92608 | 27.86684 | 9004 ft | 257 kts | 46° |
| 2026-04-25 22:53 | 40.94045 | 27.88047 | 9006 ft | 256 kts | 22° |
| 2026-04-25 22:53 | 40.95781 | 27.88501 | 9006 ft | 257 kts | 0° |
| 2026-04-25 22:53 | 40.97573 | 27.88459 | 9008 ft | 257 kts | 359° |
| 2026-04-25 22:54 | 40.99364 | 27.88428 | 9007 ft | 258 kts | 360° |
| 2026-04-25 22:54 | 41.01155 | 27.88405 | 9008 ft | 258 kts | 0° |
| 2026-04-25 22:54 | 41.02931 | 27.88614 | 9007 ft | 257 kts | 14° |
| 2026-04-25 22:54 | 41.04665 | 27.89214 | 9010 ft | 257 kts | 15° |
| 2026-04-25 22:55 | 41.06401 | 27.89811 | 9010 ft | 257 kts | 14° |
| 2026-04-25 22:55 | 41.08073 | 27.90380 | 9008 ft | 257 kts | 14° |
| 2026-04-25 22:55 | 41.09799 | 27.90962 | 9007 ft | 257 kts | 14° |
| 2026-04-25 22:55 | 41.11529 | 27.91561 | 9006 ft | 257 kts | 18° |
| 2026-04-25 22:56 | 41.13147 | 27.92558 | 9009 ft | 257 kts | 30° |
| 2026-04-25 22:56 | 41.14702 | 27.93727 | 9011 ft | 257 kts | 29° |
| 2026-04-25 22:56 | 41.16257 | 27.94889 | 9007 ft | 257 kts | 29° |
| 2026-04-25 22:56 | 41.17819 | 27.96053 | 9011 ft | 257 kts | 29° |
| 2026-04-25 22:57 | 41.19378 | 27.97216 | 9009 ft | 257 kts | 29° |
| 2026-04-25 22:57 | 41.20842 | 27.98442 | 9007 ft | 257 kts | 39° |
| 2026-04-25 22:57 | 41.22177 | 28.00134 | 9009 ft | 258 kts | 44° |
| 2026-04-25 22:57 | 41.23451 | 28.01803 | 9008 ft | 258 kts | 44° |
| 2026-04-25 22:58 | 41.24730 | 28.03475 | 9008 ft | 258 kts | 45° |
| 2026-04-25 22:58 | 41.25680 | 28.05472 | 9008 ft | 259 kts | 71° |
| 2026-04-25 22:58 | 41.25830 | 28.07846 | 8999 ft | 262 kts | 98° |
| 2026-04-25 22:58 | 41.25136 | 28.10075 | 8757 ft | 263 kts | 127° |
| 2026-04-25 22:59 | 41.23782 | 28.11698 | 8543 ft | 264 kts | 141° |
| 2026-04-25 22:59 | 41.22323 | 28.13182 | 8337 ft | 263 kts | 141° |
| 2026-04-25 22:59 | 41.20878 | 28.14661 | 8135 ft | 262 kts | 141° |
| 2026-04-25 22:59 | 41.19438 | 28.16145 | 7924 ft | 261 kts | 141° |
| 2026-04-25 23:00 | 41.18009 | 28.17623 | 7726 ft | 260 kts | 140° |
| 2026-04-25 23:00 | 41.16585 | 28.19098 | 7519 ft | 259 kts | 140° |
| 2026-04-25 23:00 | 41.15168 | 28.20563 | 7323 ft | 258 kts | 140° |
| 2026-04-25 23:00 | 41.13761 | 28.22020 | 7141 ft | 257 kts | 140° |
| 2026-04-25 23:01 | 41.12353 | 28.23474 | 6955 ft | 256 kts | 140° |
| 2026-04-25 23:01 | 41.11009 | 28.24857 | 6775 ft | 255 kts | 140° |
| 2026-04-25 23:01 | 41.09600 | 28.26305 | 6595 ft | 254 kts | 140° |
| 2026-04-25 23:01 | 41.08209 | 28.27735 | 6411 ft | 253 kts | 140° |
| 2026-04-25 23:02 | 41.06822 | 28.29163 | 6218 ft | 252 kts | 140° |
| 2026-04-25 23:02 | 41.05437 | 28.30589 | 6032 ft | 252 kts | 140° |
| 2026-04-25 23:02 | 41.04057 | 28.32007 | 5840 ft | 251 kts | 140° |
| 2026-04-25 23:02 | 41.02678 | 28.33420 | 5661 ft | 250 kts | 140° |
| 2026-04-25 23:03 | 41.01305 | 28.34825 | 5474 ft | 249 kts | 140° |
| 2026-04-25 23:03 | 40.99930 | 28.36233 | 5295 ft | 249 kts | 140° |
| 2026-04-25 23:03 | 40.98640 | 28.37721 | 5095 ft | 242 kts | 128° |
| 2026-04-25 23:03 | 40.97824 | 28.39600 | 4902 ft | 232 kts | 107° |
| 2026-04-25 23:04 | 40.97558 | 28.41685 | 4709 ft | 230 kts | 88° |
| 2026-04-25 23:04 | 40.97568 | 28.43089 | 4587 ft | 230 kts | 88° |
| 2026-04-25 23:04 | 40.97571 | 28.45914 | 4314 ft | 230 kts | 89° |
| 2026-04-25 23:04 | 40.97567 | 28.48030 | 4113 ft | 229 kts | 89° |
| 2026-04-25 23:05 | 40.97438 | 28.50129 | 3904 ft | 230 kts | 101° |
| 2026-04-25 23:05 | 40.97097 | 28.52198 | 3701 ft | 230 kts | 101° |
| 2026-04-25 23:05 | 40.96762 | 28.54260 | 3493 ft | 229 kts | 101° |
| 2026-04-25 23:05 | 40.96431 | 28.56324 | 3286 ft | 229 kts | 101° |
| 2026-04-25 23:06 | 40.96107 | 28.58352 | 3094 ft | 222 kts | 101° |
| 2026-04-25 23:06 | 40.95945 | 28.60327 | 2988 ft | 213 kts | 88° |
| 2026-04-25 23:06 | 40.95982 | 28.62282 | 2981 ft | 213 kts | 88° |
| 2026-04-25 23:06 | 40.96005 | 28.64240 | 2982 ft | 213 kts | 88° |
| 2026-04-25 23:07 | 40.96065 | 28.66198 | 2984 ft | 213 kts | 80° |
| 2026-04-25 23:07 | 40.96509 | 28.68047 | 2982 ft | 212 kts | 62° |
| 2026-04-25 23:07 | 40.97384 | 28.69613 | 2983 ft | 212 kts | 43° |
| 2026-04-25 23:07 | 40.98590 | 28.70714 | 2983 ft | 212 kts | 24° |
| 2026-04-25 23:08 | 41.00012 | 28.71228 | 2979 ft | 212 kts | 5° |
| 2026-04-25 23:08 | 41.01493 | 28.71231 | 2982 ft | 213 kts | 359° |
| 2026-04-25 23:08 | 41.02771 | 28.71206 | 2977 ft | 203 kts | 359° |
| 2026-04-25 23:08 | 41.04155 | 28.71180 | 2983 ft | 194 kts | 359° |
| 2026-04-25 23:09 | 41.05440 | 28.71155 | 3001 ft | 175 kts | 359° |
| 2026-04-25 23:09 | 41.06577 | 28.71133 | 3000 ft | 151 kts | 359° |
| 2026-04-25 23:09 | 41.07602 | 28.71113 | 2986 ft | 144 kts | 359° |
| 2026-04-25 23:09 | 41.08594 | 28.71094 | 2982 ft | 141 kts | 359° |
| 2026-04-25 23:10 | 41.09573 | 28.71075 | 2984 ft | 140 kts | 359° |
| 2026-04-25 23:10 | 41.10547 | 28.71056 | 2991 ft | 140 kts | 359° |
| 2026-04-25 23:10 | 41.11520 | 28.71037 | 2988 ft | 140 kts | 359° |
| 2026-04-25 23:10 | 41.12492 | 28.71018 | 2948 ft | 140 kts | 359° |
| 2026-04-25 23:11 | 41.13466 | 28.70998 | 2838 ft | 140 kts | 359° |
| 2026-04-25 23:11 | 41.14440 | 28.70979 | 2679 ft | 139 kts | 359° |
| 2026-04-25 23:11 | 41.15406 | 28.70960 | 2500 ft | 138 kts | 359° |
| 2026-04-25 23:11 | 41.16357 | 28.70942 | 2322 ft | 136 kts | 359° |
| 2026-04-25 23:12 | 41.17298 | 28.70923 | 2143 ft | 135 kts | 359° |
| 2026-04-25 23:12 | 41.18236 | 28.70905 | 1964 ft | 135 kts | 359° |
| 2026-04-25 23:12 | 41.19172 | 28.70886 | 1780 ft | 135 kts | 358° |
| 2026-04-25 23:12 | 41.20108 | 28.70868 | 1599 ft | 135 kts | 358° |
| 2026-04-25 23:13 | 41.21024 | 28.70850 | 1416 ft | 134 kts | 358° |
| 2026-04-25 23:13 | 41.21956 | 28.70832 | 1245 ft | 134 kts | 358° |
| 2026-04-25 23:13 | 41.22889 | 28.70815 | 1059 ft | 134 kts | 358° |
| 2026-04-25 23:13 | 41.23819 | 28.70792 | 871 ft | 134 kts | 357° |
| 2026-04-25 23:14 | 41.24751 | 28.70766 | 706 ft | 133 kts | 358° |
| 2026-04-25 23:14 | 41.25676 | 28.70753 | 525 ft | 132 kts | 357° |
| 2026-04-25 23:14 | 41.26594 | 28.70732 | 374 ft | 131 kts | 357° |
| 2026-04-25 23:14 | 41.27446 | 28.70710 | 336 ft | 113 kts | 358° |
| 2026-04-25 23:15 | 41.28075 | 28.70697 | 334 ft | 69 kts | 358° |
| 2026-04-25 23:15 | 41.28427 | 28.70697 | 329 ft | 42 kts | 7° |
| 2026-04-25 23:15 | 41.28635 | 28.70794 | 331 ft | 25 kts | 28° |
| 2026-04-25 23:15 | 41.28701 | 28.70871 | 331 ft | 8 kts | 74° |
| 2026-04-25 23:16 | 41.28642 | 28.70933 | 330 ft | 15 kts | 168° |
| 2026-04-25 23:16 | 41.28532 | 28.70954 | 332 ft | 12 kts | 152° |
| 2026-04-25 23:16 | 41.28501 | 28.71029 | 333 ft | 0 kts | 92° |
| 2026-04-25 23:16 | 41.28501 | 28.71034 | 334 ft | 3 kts | 91° |
| 2026-04-25 23:17 | 41.28504 | 28.71109 | 333 ft | 13 kts | 92° |
| 2026-04-25 23:17 | 41.28423 | 28.71172 | 334 ft | 18 kts | 180° |
| 2026-04-25 23:17 | 41.28283 | 28.71176 | 333 ft | 22 kts | 179° |
| 2026-04-25 23:17 | 41.28125 | 28.71179 | 331 ft | 23 kts | 179° |
| 2026-04-25 23:18 | 41.28012 | 28.71182 | 333 ft | 15 kts | 179° |
| 2026-04-25 23:18 | 41.27895 | 28.71184 | 333 ft | 19 kts | 179° |
| 2026-04-25 23:18 | 41.27755 | 28.71187 | 330 ft | 21 kts | 179° |
| 2026-04-25 23:18 | 41.27596 | 28.71191 | 331 ft | 24 kts | 179° |
| 2026-04-25 23:19 | 41.27428 | 28.71195 | 332 ft | 23 kts | 179° |
| 2026-04-25 23:19 | 41.27264 | 28.71198 | 334 ft | 24 kts | 179° |
| 2026-04-25 23:19 | 41.27105 | 28.71203 | 332 ft | 23 kts | 179° |
| 2026-04-25 23:19 | 41.26938 | 28.71206 | 334 ft | 24 kts | 179° |
| 2026-04-25 23:20 | 41.26800 | 28.71219 | 330 ft | 13 kts | 153° |
| 2026-04-25 23:20 | 41.26783 | 28.71320 | 334 ft | 11 kts | 89° |
| 2026-04-25 23:20 | 41.26784 | 28.71415 | 334 ft | 10 kts | 88° |
| 2026-04-25 23:20 | 41.26786 | 28.71503 | 331 ft | 11 kts | 89° |
| 2026-04-25 23:21 | 41.26787 | 28.71632 | 334 ft | 15 kts | 89° |
| 2026-04-25 23:21 | 41.26734 | 28.71727 | 332 ft | 15 kts | 171° |
| 2026-04-25 23:21 | 41.26702 | 28.71848 | 332 ft | 16 kts | 89° |
| 2026-04-25 23:21 | 41.26705 | 28.71994 | 334 ft | 14 kts | 88° |
| 2026-04-25 23:22 | 41.26707 | 28.72080 | 334 ft | 9 kts | 89° |
| 2026-04-25 23:22 | 41.26707 | 28.72174 | 334 ft | 13 kts | 89° |
| 2026-04-25 23:22 | 41.26709 | 28.72323 | 334 ft | 19 kts | 89° |
| 2026-04-25 23:23 | 41.26714 | 28.72713 | 333 ft | 23 kts | 89° |
| 2026-04-25 23:23 | 41.26716 | 28.72921 | 334 ft | 22 kts | 89° |
| 2026-04-25 23:23 | 41.26744 | 28.73095 | 333 ft | 17 kts | 24° |
| 2026-04-25 23:23 | 41.26858 | 28.73144 | 332 ft | 18 kts | 56° |
| 2026-04-25 23:24 | 41.26868 | 28.73285 | 331 ft | 10 kts | 90° |
| 2026-04-25 23:24 | 41.26869 | 28.73373 | 333 ft | 9 kts | 89° |
| 2026-04-25 23:24 | 41.26870 | 28.73452 | 333 ft | 8 kts | 89° |
| 2026-04-25 23:24 | 41.26871 | 28.73524 | 331 ft | 7 kts | 89° |
| 2026-04-25 23:25 | 41.26871 | 28.73570 | 330 ft | 1 kts | 89° |
| 2026-04-25 23:25 | 41.26873 | 28.73649 | 332 ft | 17 kts | 88° |
| 2026-04-25 23:25 | 41.26876 | 28.73846 | 334 ft | 23 kts | 89° |
| 2026-04-25 23:25 | 41.26849 | 28.74008 | 332 ft | 15 kts | 157° |
| 2026-04-25 23:26 | 41.26801 | 28.74097 | 332 ft | 8 kts | 85° |
| 2026-04-25 23:26 | 41.26802 | 28.74116 | 332 ft | 3 kts | 87° |
| 2026-04-25 23:26 | 41.26802 | 28.74132 | 333 ft | 1 kts | 90° |
| 2026-04-25 23:26 | 41.26802 | 28.74137 | 334 ft | 0 kts | 90° |